Abilene, Texas
Current Conditions -  °F | °C
As of 12:52 PM on Monday 20 Oct 2014 (Local Time) from KABI Reporting Station
Clear Clear  
Wind Chill: 77°   Ceiling: Unl
Heat Index: 79°   Visibility: 10mi
Dew Point: 59°   Wind: 6mph
Humidity: 54%   Direction: 280°W
Pressure: 30.1"   Gusts: NA
Location:  32.45°N, 99.74°W
Report Text: KABI 201752Z 28005KT 10SM CLR 25/15 A3010 RMK AO2 SLP172 T02500150 10256 20150 58008
Loading
Personal Weather Stations






























Interactive Weather Map
Tropical Storm Tracking
New forecast layout! Learn more

10-Day Weather Forecast

Advertisements
Track Severe Weather on mobile